Time;durP1;ratioP1;P1;durP2;ratioP2;P2;SDS_P1;SDS_P2;PMS_P1;PMS_P2;Temp;Humidity;BMP_temperature;BMP_pressure;BME280_temperature;BME280_humidity;BME280_pressure;Samples;Min_cycle;Max_cycle;Signal;HPM_P1;HPM_P2
2023/11/13 00:02:24;;;;;;;9.13;5.20;;;7.10;99.90;;;;;;5056457;28;20434;-72
2023/11/13 00:04:50;;;;;;;7.23;5.93;;;7.00;99.90;;;;;;5057149;28;20459;-73
2023/11/13 00:07:16;;;;;;;9.10;5.47;;;7.00;99.90;;;;;;5057968;28;20209;-73
2023/11/13 00:09:42;;;;;;;7.40;5.60;;;7.00;99.90;;;;;;5057050;28;20412;-74
2023/11/13 00:12:08;;;;;;;5.73;4.97;;;7.00;99.90;;;;;;5056453;28;20189;-74
2023/11/13 00:14:33;;;;;;;8.73;6.40;;;7.00;99.90;;;;;;5056333;28;20191;-73
2023/11/13 00:17:00;;;;;;;7.70;5.80;;;7.00;99.90;;;;;;5068971;28;20441;-74
2023/11/13 00:19:26;;;;;;;7.40;5.30;;;6.90;99.90;;;;;;5069949;28;20223;-73
2023/11/13 00:21:51;;;;;;;7.83;7.03;;;6.90;99.90;;;;;;5070172;28;20778;-76
2023/11/13 00:24:18;;;;;;;6.80;5.97;;;6.90;99.90;;;;;;5060485;28;20189;-76
2023/11/13 00:26:44;;;;;;;6.20;5.60;;;6.90;99.90;;;;;;5069887;28;20512;-73
2023/11/13 00:29:11;;;;;;;8.43;5.10;;;6.90;99.90;;;;;;5067549;28;20412;-75
2023/11/13 00:31:37;;;;;;;7.93;6.00;;;6.90;99.90;;;;;;5063600;28;20696;-72
2023/11/13 00:34:03;;;;;;;9.10;4.93;;;6.90;99.90;;;;;;5068963;28;20466;-73
2023/11/13 00:36:28;;;;;;;7.30;5.47;;;6.80;99.90;;;;;;5065238;28;20609;-73
2023/11/13 00:38:54;;;;;;;7.70;5.73;;;6.90;99.90;;;;;;5064692;28;20708;-75
2023/11/13 00:41:20;;;;;;;7.10;5.33;;;6.90;99.90;;;;;;5063783;28;20210;-76
2023/11/13 00:43:46;;;;;;;6.83;5.70;;;6.80;99.90;;;;;;5068710;28;20189;-73
2023/11/13 00:46:11;;;;;;;7.30;5.60;;;6.80;99.90;;;;;;5071589;28;20200;-77
2023/11/13 00:48:40;;;;;;;6.70;5.70;;;6.80;99.90;;;;;;5068894;28;20199;-72
2023/11/13 00:51:08;;;;;;;7.73;5.03;;;6.80;99.90;;;;;;5068977;28;20180;-74
2023/11/13 00:53:37;;;;;;;4.93;4.43;;;6.70;99.90;;;;;;5065789;28;20465;-74
2023/11/13 00:56:07;;;;;;;5.23;4.70;;;6.80;99.90;;;;;;5066035;28;20424;-75
2023/11/13 00:58:34;;;;;;;5.70;4.90;;;6.70;99.90;;;;;;5065741;28;20415;-76
2023/11/13 01:01:06;;;;;;;6.73;6.03;;;6.80;99.90;;;;;;5059382;28;20469;-76
2023/11/13 01:03:32;;;;;;;5.27;4.70;;;6.90;99.90;;;;;;5060266;28;20427;-76
2023/11/13 01:05:59;;;;;;;6.83;4.80;;;6.90;99.90;;;;;;5064476;28;20495;-76
2023/11/13 01:08:25;;;;;;;6.67;5.87;;;6.90;99.90;;;;;;5063298;28;20526;-73
2023/11/13 01:10:51;;;;;;;6.50;5.17;;;6.90;99.90;;;;;;5059260;28;20415;-74
2023/11/13 01:13:16;;;;;;;5.30;4.77;;;6.80;99.90;;;;;;5063192;28;20473;-75
2023/11/13 01:15:43;;;;;;;5.40;4.30;;;6.90;99.90;;;;;;5061875;28;20220;-73
2023/11/13 01:18:09;;;;;;;5.03;4.53;;;6.80;99.90;;;;;;5057569;28;21079;-74
2023/11/13 01:20:35;;;;;;;4.57;4.10;;;6.80;99.90;;;;;;5057846;28;20411;-75
2023/11/13 01:23:00;;;;;;;5.10;4.23;;;6.80;99.90;;;;;;5061269;28;20423;-72
2023/11/13 01:25:26;;;;;;;6.37;4.33;;;6.70;99.90;;;;;;5062755;28;20554;-72
2023/11/13 01:27:52;;;;;;;6.70;4.60;;;6.70;99.90;;;;;;5059625;28;20676;-74
2023/11/13 01:30:17;;;;;;;5.07;4.57;;;6.80;99.90;;;;;;5064821;28;20180;-76
2023/11/13 01:32:44;;;;;;;8.00;5.40;;;6.80;99.90;;;;;;5066488;28;20208;-73
2023/11/13 01:35:09;;;;;;;5.20;4.07;;;6.80;99.90;;;;;;5063270;28;20189;-75
2023/11/13 01:37:35;;;;;;;7.13;4.90;;;6.70;99.90;;;;;;5064132;28;21061;-76
2023/11/13 01:40:03;;;;;;;7.73;4.80;;;6.80;99.90;;;;;;5066416;28;20200;-74
2023/11/13 01:42:28;;;;;;;5.33;4.30;;;6.80;99.90;;;;;;5060447;28;20181;-75
2023/11/13 01:44:55;;;;;;;6.17;4.80;;;6.80;99.90;;;;;;5059026;28;20465;-74
2023/11/13 01:47:22;;;;;;;5.80;4.30;;;6.80;99.90;;;;;;5060239;28;20201;-75
2023/11/13 01:49:48;;;;;;;6.30;4.63;;;6.80;99.90;;;;;;5060147;28;20423;-74
2023/11/13 01:52:14;;;;;;;5.37;4.57;;;6.80;99.90;;;;;;5059917;28;20499;-74
2023/11/13 01:54:41;;;;;;;5.67;3.90;;;6.80;99.90;;;;;;5059431;28;20519;-74
2023/11/13 01:57:09;;;;;;;6.87;4.03;;;6.80;99.90;;;;;;5060269;28;20192;-75
2023/11/13 01:59:38;;;;;;;6.20;4.70;;;6.90;99.90;;;;;;5059760;28;20415;-74
2023/11/13 02:02:04;;;;;;;6.37;4.00;;;7.00;99.90;;;;;;5059725;28;20503;-74
2023/11/13 02:04:30;;;;;;;6.53;4.33;;;7.00;99.90;;;;;;5058744;28;20767;-74
2023/11/13 02:06:57;;;;;;;6.13;4.40;;;7.00;99.90;;;;;;5059656;28;20434;-73
2023/11/13 02:09:23;;;;;;;6.70;5.00;;;7.00;99.90;;;;;;5059907;28;20693;-75
2023/11/13 02:11:49;;;;;;;7.07;3.90;;;7.00;99.90;;;;;;5060063;28;20407;-74
2023/11/13 02:14:15;;;;;;;5.00;4.10;;;7.10;99.90;;;;;;5059052;28;20829;-74
2023/11/13 02:16:41;;;;;;;7.50;4.07;;;7.10;99.90;;;;;;5059336;28;20459;-75
2023/11/13 02:19:09;;;;;;;6.70;4.47;;;7.00;99.90;;;;;;5059678;28;20446;-73
2023/11/13 02:21:35;;;;;;;7.90;4.10;;;7.00;99.90;;;;;;5059405;28;20189;-74
2023/11/13 02:24:04;;;;;;;8.60;4.60;;;7.00;99.90;;;;;;5058872;28;20447;-73
2023/11/13 02:26:29;;;;;;;5.80;4.70;;;6.90;99.90;;;;;;5059375;28;20266;-74
2023/11/13 02:28:55;;;;;;;5.50;4.20;;;6.90;99.90;;;;;;5057999;28;20446;-75
2023/11/13 02:31:21;;;;;;;7.00;4.00;;;6.80;99.90;;;;;;5059110;28;20370;-73
2023/11/13 02:33:46;;;;;;;8.90;4.30;;;6.80;99.90;;;;;;5058715;28;20574;-75
2023/11/13 02:36:12;;;;;;;5.40;3.87;;;6.90;99.90;;;;;;5059552;28;20192;-74
2023/11/13 02:38:38;;;;;;;5.07;4.57;;;6.90;99.90;;;;;;5059515;28;20185;-73
2023/11/13 02:41:03;;;;;;;5.30;4.60;;;6.90;99.90;;;;;;5058171;28;20250;-74
2023/11/13 02:43:29;;;;;;;6.13;4.83;;;6.90;99.90;;;;;;5059366;28;20193;-75
2023/11/13 02:45:55;;;;;;;7.60;5.17;;;6.90;99.90;;;;;;5058666;28;20209;-75
2023/11/13 02:48:20;;;;;;;4.00;3.60;;;6.90;99.90;;;;;;5059932;28;20249;-75
2023/11/13 02:50:46;;;;;;;5.00;4.13;;;6.90;99.90;;;;;;5058643;28;20260;-74
2023/11/13 02:53:13;;;;;;;5.03;4.00;;;6.90;99.90;;;;;;5058362;28;20184;-75
2023/11/13 02:55:38;;;;;;;6.10;4.30;;;7.00;99.90;;;;;;5058680;28;20318;-72
2023/11/13 02:58:05;;;;;;;4.60;3.80;;;7.00;99.90;;;;;;5057662;28;20519;-76
2023/11/13 03:00:32;;;;;;;5.77;4.13;;;7.00;99.90;;;;;;5064329;28;20651;-75
2023/11/13 03:02:59;;;;;;;4.50;4.07;;;7.00;99.90;;;;;;5058816;28;20423;-75
2023/11/13 03:05:24;;;;;;;4.43;3.97;;;6.90;99.90;;;;;;5057815;28;20470;-75
2023/11/13 03:07:51;;;;;;;5.33;3.80;;;6.90;99.90;;;;;;5058803;28;20440;-74
2023/11/13 03:10:16;;;;;;;5.73;4.67;;;6.90;99.90;;;;;;5059456;28;20447;-74
2023/11/13 03:12:42;;;;;;;4.97;4.30;;;6.90;99.90;;;;;;5058585;28;20497;-75
2023/11/13 03:15:11;;;;;;;4.90;3.77;;;6.90;99.90;;;;;;5056553;28;20769;-74
2023/11/13 03:17:36;;;;;;;5.47;4.97;;;7.00;99.90;;;;;;5058786;28;20208;-73
2023/11/13 03:20:06;;;;;;;4.90;4.00;;;7.00;99.90;;;;;;5058514;28;20424;-76
2023/11/13 03:22:32;;;;;;;4.93;4.00;;;7.00;99.90;;;;;;5058624;28;20217;-75
2023/11/13 03:24:58;;;;;;;8.40;3.83;;;7.00;99.90;;;;;;5055891;28;20455;-75
2023/11/13 03:27:24;;;;;;;5.60;4.20;;;7.00;99.90;;;;;;5058849;28;20439;-73
2023/11/13 03:29:50;;;;;;;5.10;4.60;;;7.10;99.90;;;;;;5059094;28;21009;-75
2023/11/13 03:32:17;;;;;;;4.80;4.30;;;7.10;99.90;;;;;;5059055;28;20169;-75
2023/11/13 03:34:44;;;;;;;4.90;4.40;;;7.10;99.90;;;;;;5058234;28;20503;-74
2023/11/13 03:37:10;;;;;;;6.07;4.70;;;7.10;99.90;;;;;;5058551;28;20489;-75
2023/11/13 03:39:36;;;;;;;6.37;4.07;;;7.20;99.90;;;;;;5057406;28;20853;-73
2023/11/13 03:42:02;;;;;;;5.80;4.30;;;7.20;99.90;;;;;;5056796;28;20413;-74
2023/11/13 03:44:28;;;;;;;6.73;3.60;;;7.20;99.90;;;;;;5057905;28;20462;-73
2023/11/13 03:46:54;;;;;;;6.37;4.57;;;7.20;99.90;;;;;;5058260;28;20898;-76
2023/11/13 03:49:19;;;;;;;4.20;3.80;;;7.20;99.90;;;;;;5058718;28;20173;-75
2023/11/13 03:51:46;;;;;;;4.90;3.87;;;7.20;99.90;;;;;;5056462;28;20691;-76
2023/11/13 03:54:12;;;;;;;5.10;4.50;;;7.20;99.90;;;;;;5057044;28;20197;-72
2023/11/13 03:56:38;;;;;;;5.53;3.93;;;7.20;99.90;;;;;;5058466;28;20967;-74
2023/11/13 03:59:03;;;;;;;4.87;4.37;;;7.30;99.90;;;;;;5057182;28;20182;-75
2023/11/13 04:01:30;;;;;;;5.47;3.87;;;7.30;99.90;;;;;;5058651;28;20449;-75
2023/11/13 04:03:55;;;;;;;7.10;4.20;;;7.30;99.90;;;;;;5056165;28;20269;-75
2023/11/13 04:06:21;;;;;;;5.47;4.80;;;7.40;99.90;;;;;;5058242;28;20550;-75
2023/11/13 04:08:47;;;;;;;4.67;4.00;;;7.40;99.90;;;;;;5057139;28;20183;-74
2023/11/13 04:11:12;;;;;;;5.27;4.77;;;7.50;99.90;;;;;;5058142;28;20182;-73
2023/11/13 04:13:38;;;;;;;5.63;4.27;;;7.50;99.90;;;;;;5056541;28;20181;-76
2023/11/13 04:16:04;;;;;;;5.90;4.37;;;7.40;99.90;;;;;;5058450;28;20216;-75
2023/11/13 04:18:33;;;;;;;6.40;4.17;;;7.40;99.90;;;;;;5058093;28;20205;-74
2023/11/13 04:20:59;;;;;;;5.17;4.67;;;7.50;99.90;;;;;;5071968;28;20415;-74
2023/11/13 04:23:26;;;;;;;4.50;3.77;;;7.40;99.90;;;;;;5055813;28;20411;-74
2023/11/13 04:25:51;;;;;;;8.10;4.70;;;7.50;99.90;;;;;;5057601;28;20205;-73
2023/11/13 04:28:19;;;;;;;4.57;4.07;;;7.50;99.90;;;;;;5058329;28;20437;-75
2023/11/13 04:30:48;;;;;;;6.83;4.67;;;7.60;99.90;;;;;;5057453;28;20184;-75
2023/11/13 04:33:13;;;;;;;5.00;4.03;;;7.60;99.90;;;;;;5057478;28;20408;-73
2023/11/13 04:35:39;;;;;;;6.10;4.80;;;7.70;99.90;;;;;;5057914;28;20420;-74
2023/11/13 04:38:05;;;;;;;5.37;4.87;;;7.70;99.90;;;;;;5057917;28;20703;-75
2023/11/13 04:40:31;;;;;;;5.50;4.50;;;7.70;99.90;;;;;;5063197;28;21138;-75
2023/11/13 04:43:01;;;;;;;4.50;4.00;;;7.70;99.90;;;;;;5055835;28;20465;-75
2023/11/13 04:45:27;;;;;;;4.83;4.20;;;7.70;99.90;;;;;;5057075;28;20459;-75
2023/11/13 04:47:54;;;;;;;5.20;4.20;;;7.70;99.90;;;;;;5057683;28;20428;-75
2023/11/13 04:50:19;;;;;;;4.60;3.90;;;7.70;99.90;;;;;;5057234;28;20219;-76
2023/11/13 04:52:45;;;;;;;5.10;4.10;;;7.70;99.90;;;;;;5054791;28;20416;-75
2023/11/13 04:55:12;;;;;;;4.77;4.27;;;7.70;99.90;;;;;;5056649;28;20184;-75
2023/11/13 04:57:38;;;;;;;9.07;5.13;;;7.80;99.90;;;;;;5057012;28;20276;-75
2023/11/13 05:00:05;;;;;;;5.40;4.20;;;7.80;99.90;;;;;;5056976;28;20921;-76
2023/11/13 05:02:31;;;;;;;5.17;4.67;;;7.80;99.90;;;;;;5056767;28;20408;-73
2023/11/13 05:04:57;;;;;;;6.90;4.67;;;7.80;99.90;;;;;;5055613;28;20840;-74
2023/11/13 05:07:22;;;;;;;4.70;4.30;;;8.00;99.90;;;;;;5057539;28;20235;-75
2023/11/13 05:09:48;;;;;;;6.80;4.43;;;8.00;99.90;;;;;;5054507;28;20181;-74
2023/11/13 05:12:15;;;;;;;6.00;4.47;;;7.90;99.90;;;;;;5057073;28;20690;-74
2023/11/13 05:14:43;;;;;;;5.03;4.10;;;7.90;99.90;;;;;;5057245;28;20214;-74
2023/11/13 05:17:09;;;;;;;7.07;5.40;;;7.90;99.90;;;;;;5060657;28;20480;-75
2023/11/13 05:19:35;;;;;;;4.80;3.50;;;7.90;99.90;;;;;;5061213;28;20972;-74
2023/11/13 05:22:00;;;;;;;6.10;4.40;;;7.90;99.90;;;;;;5061161;28;20188;-75
2023/11/13 05:24:26;;;;;;;5.70;4.80;;;7.90;99.90;;;;;;5059732;28;20993;-74
2023/11/13 05:26:53;;;;;;;4.90;4.40;;;7.90;99.90;;;;;;5060020;28;20355;-74
2023/11/13 05:29:19;;;;;;;5.23;3.73;;;8.00;99.90;;;;;;5060753;28;20185;-73
2023/11/13 05:31:45;;;;;;;5.83;3.77;;;8.00;99.90;;;;;;5060601;28;20449;-74
2023/11/13 05:34:10;;;;;;;4.87;4.37;;;7.90;99.90;;;;;;5059539;28;20506;-74
2023/11/13 05:36:37;;;;;;;4.43;3.73;;;8.00;99.90;;;;;;5060355;28;20216;-75
2023/11/13 05:39:05;;;;;;;3.60;2.87;;;8.00;99.90;;;;;;5060211;28;20661;-74
2023/11/13 05:41:32;;;;;;;5.20;3.80;;;8.00;99.90;;;;;;5061885;28;20426;-74
2023/11/13 05:43:58;;;;;;;4.00;2.90;;;8.10;99.90;;;;;;5059674;28;20431;-74
2023/11/13 05:46:24;;;;;;;4.93;3.67;;;8.10;99.90;;;;;;5059577;28;20458;-73
2023/11/13 05:48:50;;;;;;;5.67;3.40;;;8.10;99.90;;;;;;5059849;28;20430;-74
2023/11/13 05:51:18;;;;;;;5.10;4.07;;;8.10;99.90;;;;;;5058589;28;20595;-73
2023/11/13 05:53:44;;;;;;;6.77;3.33;;;8.10;99.90;;;;;;5058413;28;20261;-73
2023/11/13 05:56:10;;;;;;;4.27;3.50;;;8.10;99.90;;;;;;5059290;28;20415;-73
2023/11/13 05:58:35;;;;;;;4.37;3.13;;;8.20;99.90;;;;;;5061041;28;20465;-74
2023/11/13 06:01:02;;;;;;;3.10;2.30;;;8.20;99.90;;;;;;5059979;28;20905;-73
2023/11/13 06:03:28;;;;;;;3.10;2.80;;;8.20;99.90;;;;;;5058789;28;20813;-74
2023/11/13 06:05:53;;;;;;;4.00;2.77;;;8.20;99.90;;;;;;5060118;28;20459;-74
2023/11/13 06:08:19;;;;;;;3.83;2.60;;;8.20;99.90;;;;;;5059595;28;20201;-75
2023/11/13 06:10:44;;;;;;;2.77;2.57;;;8.20;99.90;;;;;;5059732;28;20269;-75
2023/11/13 06:13:12;;;;;;;2.93;2.70;;;8.20;99.90;;;;;;5058921;28;20185;-75
2023/11/13 06:15:40;;;;;;;4.07;3.13;;;8.20;99.90;;;;;;5059553;28;20181;-75
2023/11/13 06:18:06;;;;;;;3.50;2.63;;;8.30;99.90;;;;;;5059056;28;20428;-75
2023/11/13 06:20:33;;;;;;;3.80;2.90;;;8.30;99.90;;;;;;5060120;28;20414;-75
2023/11/13 06:22:59;;;;;;;3.70;3.33;;;8.30;99.90;;;;;;5058832;28;20422;-74
2023/11/13 06:25:25;;;;;;;3.70;3.37;;;8.40;99.90;;;;;;5058652;28;20459;-75
2023/11/13 06:27:53;;;;;;;5.60;3.70;;;8.40;99.90;;;;;;5058677;28;20457;-74
2023/11/13 06:30:19;;;;;;;4.97;3.47;;;8.40;99.90;;;;;;5058900;28;20181;-75
2023/11/13 06:32:48;;;;;;;5.13;3.27;;;8.40;99.90;;;;;;5059303;28;20512;-75
2023/11/13 06:35:15;;;;;;;4.33;3.57;;;8.50;99.90;;;;;;5059370;28;20213;-75
2023/11/13 06:37:41;;;;;;;3.70;3.33;;;8.50;99.90;;;;;;5058917;28;20852;-74
2023/11/13 06:40:08;;;;;;;5.80;4.17;;;8.50;99.90;;;;;;5059187;28;20582;-76
2023/11/13 06:42:33;;;;;;;4.10;3.50;;;8.60;99.90;;;;;;5058795;28;20415;-74
2023/11/13 06:44:59;;;;;;;4.67;3.77;;;8.50;99.90;;;;;;5058231;28;20507;-75
2023/11/13 06:47:25;;;;;;;4.97;4.07;;;8.60;99.90;;;;;;5059901;28;20295;-74
2023/11/13 06:49:50;;;;;;;6.20;3.87;;;8.60;99.90;;;;;;5059247;28;20173;-74
2023/11/13 06:52:16;;;;;;;5.37;4.13;;;8.60;99.90;;;;;;5058161;28;20189;-74
2023/11/13 06:54:42;;;;;;;8.13;4.73;;;8.60;99.90;;;;;;5057484;28;20174;-74
2023/11/13 06:57:07;;;;;;;6.03;4.30;;;8.60;99.90;;;;;;5058004;28;20201;-76
2023/11/13 06:59:33;;;;;;;4.70;4.20;;;8.60;99.90;;;;;;5059963;28;20178;-75
2023/11/13 07:01:59;;;;;;;5.33;4.80;;;8.60;99.90;;;;;;5058128;28;20198;-75
2023/11/13 07:04:25;;;;;;;11.30;4.90;;;8.70;99.90;;;;;;5058935;28;20184;-75
2023/11/13 07:06:51;;;;;;;5.30;4.40;;;8.60;99.90;;;;;;5042765;28;20459;-75
2023/11/13 07:09:17;;;;;;;6.20;5.13;;;8.60;99.90;;;;;;5057992;28;20720;-74
2023/11/13 07:11:44;;;;;;;6.50;4.60;;;8.70;99.90;;;;;;5058312;28;20180;-75
2023/11/13 07:14:13;;;;;;;6.70;5.10;;;8.70;99.90;;;;;;5058112;28;20412;-75
2023/11/13 07:16:42;;;;;;;6.03;4.53;;;8.70;99.90;;;;;;5075269;28;20435;-75
2023/11/13 07:19:11;;;;;;;5.83;4.80;;;8.70;99.90;;;;;;5058818;28;20419;-73
2023/11/13 07:21:36;;;;;;;7.00;6.13;;;8.80;99.90;;;;;;5058683;28;20454;-74
2023/11/13 07:24:09;;;;;;;6.30;5.33;;;8.80;99.90;;;;;;5057121;28;20452;-74
2023/11/13 07:26:36;;;;;;;6.97;5.60;;;8.80;99.90;;;;;;5058407;28;20582;-74
2023/11/13 07:29:03;;;;;;;7.60;5.30;;;8.80;99.90;;;;;;5057935;28;20412;-73
2023/11/13 07:31:29;;;;;;;9.27;6.03;;;8.90;99.90;;;;;;5059000;28;20420;-75
2023/11/13 07:33:55;;;;;;;10.20;5.87;;;9.00;99.90;;;;;;5057313;28;20448;-74
2023/11/13 07:36:23;;;;;;;13.63;6.57;;;9.00;99.90;;;;;;5058273;28;20431;-73
2023/11/13 07:38:48;;;;;;;8.40;6.70;;;9.10;99.90;;;;;;5057260;28;20913;-74
2023/11/13 07:41:14;;;;;;;10.53;6.13;;;9.10;99.90;;;;;;5058397;28;20470;-75
2023/11/13 07:43:44;;;;;;;7.73;6.77;;;9.10;99.90;;;;;;5055553;28;20195;-75
2023/11/13 07:46:11;;;;;;;14.67;6.00;;;9.20;99.90;;;;;;5073388;28;20205;-74
2023/11/13 07:48:39;;;;;;;9.60;6.03;;;9.30;99.90;;;;;;5039963;28;20899;-73
2023/11/13 07:51:06;;;;;;;7.57;6.47;;;9.40;99.90;;;;;;5059643;28;20472;-74
2023/11/13 07:53:33;;;;;;;12.23;5.03;;;9.50;99.90;;;;;;5058704;28;20428;-74
2023/11/13 07:55:59;;;;;;;6.10;4.70;;;9.50;99.90;;;;;;5059987;28;20419;-75
2023/11/13 07:58:25;;;;;;;9.03;6.20;;;9.50;99.90;;;;;;5059839;28;20442;-74
2023/11/13 08:00:53;;;;;;;10.17;6.20;;;9.60;99.90;;;;;;5060033;28;20901;-73
2023/11/13 08:03:19;;;;;;;8.73;4.70;;;9.60;99.90;;;;;;5059067;28;20477;-74
2023/11/13 08:05:45;;;;;;;6.90;5.20;;;9.70;99.90;;;;;;5059787;28;20456;-74
2023/11/13 08:08:16;;;;;;;11.00;5.50;;;9.70;99.90;;;;;;5059139;28;20518;-73
2023/11/13 08:10:46;;;;;;;6.53;4.30;;;9.70;99.90;;;;;;5057264;28;20878;-76
2023/11/13 08:13:13;;;;;;;8.30;4.50;;;9.80;99.90;;;;;;5059368;28;20498;-74
2023/11/13 08:15:40;;;;;;;7.03;3.73;;;9.80;99.90;;;;;;5057755;28;20507;-73
2023/11/13 08:18:05;;;;;;;6.93;3.50;;;9.90;99.90;;;;;;5058328;28;20506;-75
2023/11/13 08:20:31;;;;;;;4.47;3.63;;;9.90;99.90;;;;;;5057805;28;20412;-73
2023/11/13 08:22:57;;;;;;;6.00;3.50;;;9.90;99.90;;;;;;5056748;28;20217;-74
2023/11/13 08:25:23;;;;;;;6.50;3.00;;;10.00;99.90;;;;;;5057035;28;20208;-74
2023/11/13 08:27:52;;;;;;;7.03;3.30;;;10.00;99.90;;;;;;5074402;28;20250;-73
2023/11/13 08:30:22;;;;;;;8.10;3.50;;;10.00;99.90;;;;;;5058445;28;21311;-72
2023/11/13 08:32:51;;;;;;;3.17;2.53;;;10.10;99.90;;;;;;5057385;28;20427;-73
2023/11/13 08:35:18;;;;;;;6.03;3.50;;;10.10;99.90;;;;;;5057743;28;20917;-74
2023/11/13 08:37:47;;;;;;;4.10;2.50;;;10.10;99.90;;;;;;5057311;28;20804;-73
2023/11/13 08:40:18;;;;;;;6.77;2.40;;;10.10;99.90;;;;;;5061603;28;20431;-73
2023/11/13 08:42:44;;;;;;;7.20;3.13;;;10.10;99.90;;;;;;5057046;28;20775;-74
2023/11/13 08:45:15;;;;;;;8.40;3.00;;;10.10;99.90;;;;;;5055354;28;20471;-74
2023/11/13 08:47:45;;;;;;;6.13;2.70;;;10.10;99.90;;;;;;5056857;28;20446;-74
2023/11/13 08:50:11;;;;;;;4.70;2.53;;;10.10;99.90;;;;;;5072114;28;20503;-74
2023/11/13 08:52:42;;;;;;;6.27;2.70;;;10.10;99.90;;;;;;5055048;28;20408;-73
2023/11/13 08:55:12;;;;;;;6.87;2.67;;;10.10;99.90;;;;;;5056336;28;20448;-73
2023/11/13 08:57:42;;;;;;;3.10;2.13;;;10.10;99.90;;;;;;5056325;28;20500;-74
2023/11/13 09:00:18;;;;;;;5.00;2.50;;;10.10;99.90;;;;;;5056926;28;20420;-73
2023/11/13 09:02:46;;;;;;;4.27;1.80;;;10.00;99.90;;;;;;5055794;28;20978;-75
2023/11/13 09:05:13;;;;;;;5.17;2.40;;;10.10;99.90;;;;;;5055687;28;20917;-73
2023/11/13 09:07:40;;;;;;;5.73;2.20;;;10.10;99.90;;;;;;5056313;28;20447;-74
2023/11/13 09:10:10;;;;;;;2.93;1.87;;;10.10;99.90;;;;;;5056891;28;20563;-75
2023/11/13 09:12:37;;;;;;;3.80;2.53;;;10.10;99.90;;;;;;5056267;28;20419;-75
2023/11/13 09:15:11;;;;;;;7.30;2.07;;;10.10;99.90;;;;;;5056346;28;21091;-73
2023/11/13 09:17:45;;;;;;;3.67;2.07;;;10.10;99.90;;;;;;5056597;28;20527;-74
2023/11/13 09:20:19;;;;;;;4.00;1.77;;;10.10;99.90;;;;;;5072373;28;20465;-73
2023/11/13 09:22:48;;;;;;;5.10;2.80;;;10.20;99.90;;;;;;5056421;28;20450;-73
2023/11/13 09:25:15;;;;;;;2.00;1.50;;;10.20;99.90;;;;;;5056123;28;20463;-74
2023/11/13 09:27:48;;;;;;;2.67;1.60;;;10.20;99.90;;;;;;5061943;28;20439;-73
2023/11/13 09:30:15;;;;;;;4.37;1.90;;;10.10;99.90;;;;;;5072086;28;20423;-74
2023/11/13 09:32:44;;;;;;;4.47;1.43;;;10.20;99.90;;;;;;5057020;28;20419;-74
2023/11/13 09:35:24;;;;;;;4.23;2.00;;;10.20;99.90;;;;;;5056682;28;20784;-75
2023/11/13 09:37:54;;;;;;;2.60;1.80;;;10.20;99.90;;;;;;5055131;28;20465;-75
2023/11/13 09:40:25;;;;;;;6.70;1.87;;;10.20;99.90;;;;;;5056949;28;20458;-75
2023/11/13 09:43:12;;;;;;;2.70;1.73;;;10.20;99.90;;;;;;5054498;28;20772;-76
2023/11/13 09:45:45;;;;;;;4.50;1.77;;;10.20;99.90;;;;;;5056675;28;20459;-74
2023/11/13 09:48:19;;;;;;;3.40;1.50;;;10.30;99.90;;;;;;5056597;28;20442;-72
2023/11/13 09:50:45;;;;;;;4.07;1.90;;;10.30;99.90;;;;;;5071127;28;20447;-72
2023/11/13 09:53:19;;;;;;;2.33;1.77;;;10.30;99.90;;;;;;5055342;28;20468;-76
2023/11/13 09:55:46;;;;;;;2.80;1.77;;;10.30;99.90;;;;;;5071477;28;21328;-73
2023/11/13 09:58:13;;;;;;;1.67;1.57;;;10.20;99.90;;;;;;5055647;28;20439;-75
2023/11/13 10:00:40;;;;;;;3.77;1.90;;;10.20;99.90;;;;;;5056330;28;20455;-73
2023/11/13 10:03:08;;;;;;;2.83;1.50;;;10.20;99.90;;;;;;5059321;28;20424;-74
2023/11/13 10:05:35;;;;;;;2.50;1.30;;;10.20;99.90;;;;;;5059574;28;20490;-75
2023/11/13 10:08:02;;;;;;;1.97;1.30;;;10.20;99.90;;;;;;5059427;28;20431;-73
2023/11/13 10:10:28;;;;;;;4.80;1.60;;;10.20;99.90;;;;;;5060099;28;20419;-75
2023/11/13 10:13:10;;;;;;;2.23;1.30;;;10.20;99.90;;;;;;5058790;28;20430;-71
2023/11/13 10:15:36;;;;;;;1.83;1.63;;;10.20;99.90;;;;;;5059721;28;20514;-74
2023/11/13 10:18:08;;;;;;;4.93;1.47;;;10.20;99.90;;;;;;5060004;28;20807;-72
2023/11/13 10:20:45;;;;;;;2.10;1.43;;;10.10;99.90;;;;;;5060695;28;20507;-73
2023/11/13 10:23:13;;;;;;;5.57;2.03;;;10.10;99.90;;;;;;5061512;28;20431;-75
2023/11/13 10:25:56;;;;;;;3.23;1.40;;;10.10;99.90;;;;;;5060137;28;20946;-72
2023/11/13 10:28:40;;;;;;;3.00;1.30;;;10.10;99.90;;;;;;5078340;28;20451;-75
2023/11/13 10:31:17;;;;;;;1.80;1.20;;;10.10;99.90;;;;;;5057851;28;20416;-75
2023/11/13 10:33:59;;;;;;;3.50;1.20;;;10.10;99.90;;;;;;5058715;28;21108;-74
2023/11/13 10:36:25;;;;;;;1.40;1.10;;;10.10;99.90;;;;;;5059584;28;20465;-73
2023/11/13 10:38:52;;;;;;;1.97;1.00;;;10.10;99.90;;;;;;5058788;28;20431;-73
2023/11/13 10:41:23;;;;;;;2.60;1.00;;;10.10;99.90;;;;;;5059755;28;20450;-74
2023/11/13 10:43:49;;;;;;;1.20;0.90;;;10.10;99.90;;;;;;5058415;28;20790;-73
2023/11/13 10:46:33;;;;;;;3.30;0.87;;;10.10;99.90;;;;;;5059297;28;20459;-73
2023/11/13 10:48:59;;;;;;;2.10;1.10;;;10.10;99.90;;;;;;5058191;28;20672;-73
2023/11/13 10:51:27;;;;;;;2.03;0.90;;;10.00;99.90;;;;;;5059532;28;20407;-72
2023/11/13 10:53:55;;;;;;;1.50;0.80;;;10.00;99.90;;;;;;5058045;28;20411;-75
2023/11/13 10:56:20;;;;;;;2.50;0.90;;;10.10;99.90;;;;;;5058857;28;20427;-74
2023/11/13 10:58:48;;;;;;;1.60;1.10;;;10.10;99.90;;;;;;5059702;28;20425;-73
2023/11/13 11:01:19;;;;;;;3.93;1.17;;;10.10;99.90;;;;;;5059083;28;20184;-73
2023/11/13 11:03:47;;;;;;;2.20;1.00;;;10.20;99.90;;;;;;5063642;28;20462;-74
2023/11/13 11:06:22;;;;;;;3.23;1.10;;;10.20;99.90;;;;;;5047941;28;20566;-74
2023/11/13 11:08:50;;;;;;;1.37;0.77;;;10.20;99.90;;;;;;5059864;28;20416;-74
2023/11/13 11:11:21;;;;;;;3.60;1.03;;;10.20;99.90;;;;;;5059700;28;20455;-73
2023/11/13 11:13:56;;;;;;;1.70;0.93;;;10.30;99.90;;;;;;5057705;28;20450;-74
2023/11/13 11:16:45;;;;;;;5.10;1.40;;;10.30;99.90;;;;;;5059510;28;20814;-73
2023/11/13 11:19:14;;;;;;;1.03;0.93;;;10.30;99.90;;;;;;5059417;28;20479;-73
2023/11/13 11:22:01;;;;;;;1.50;1.00;;;10.40;99.90;;;;;;5058465;28;20929;-74
2023/11/13 11:24:35;;;;;;;1.97;1.10;;;10.40;99.90;;;;;;5057415;28;20451;-73
2023/11/13 11:27:01;;;;;;;1.90;1.20;;;10.40;99.90;;;;;;5057868;28;20528;-78
2023/11/13 11:29:43;;;;;;;1.10;1.00;;;10.50;99.90;;;;;;5058689;28;20419;-75
2023/11/13 11:32:13;;;;;;;1.93;1.50;;;10.50;99.90;;;;;;5059278;28;20181;-74
2023/11/13 11:34:43;;;;;;;1.90;1.50;;;10.60;99.90;;;;;;5057563;28;20419;-73
2023/11/13 11:37:12;;;;;;;3.37;2.03;;;10.60;99.90;;;;;;5057260;28;20452;-73
2023/11/13 11:39:53;;;;;;;3.50;1.57;;;10.60;99.90;;;;;;5056905;28;21165;-74
2023/11/13 11:42:23;;;;;;;3.07;1.93;;;10.70;99.90;;;;;;5057054;28;20902;-74
2023/11/13 11:44:59;;;;;;;3.33;2.40;;;10.80;99.90;;;;;;5057259;28;20423;-73
2023/11/13 11:47:28;;;;;;;2.63;1.90;;;10.90;99.90;;;;;;5058034;28;20440;-75
2023/11/13 11:49:56;;;;;;;2.77;1.83;;;10.90;99.90;;;;;;5057881;28;20419;-75
2023/11/13 11:52:48;;;;;;;2.83;1.73;;;10.90;99.90;;;;;;5056733;28;20435;-74
2023/11/13 11:55:16;;;;;;;1.97;1.67;;;11.00;99.90;;;;;;5057325;28;20419;-74
2023/11/13 11:57:46;;;;;;;4.20;1.83;;;11.10;99.90;;;;;;5056474;28;20777;-75
2023/11/13 12:00:23;;;;;;;5.73;2.37;;;11.10;99.90;;;;;;5056832;28;20411;-72
2023/11/13 12:02:55;;;;;;;2.77;1.77;;;11.20;99.90;;;;;;5057638;28;20941;-75
2023/11/13 12:05:22;;;;;;;1.73;1.63;;;11.30;99.90;;;;;;5058173;28;21034;-73
2023/11/13 12:07:50;;;;;;;4.50;2.00;;;11.40;99.90;;;;;;5056646;28;20550;-74
2023/11/13 12:10:20;;;;;;;2.20;1.80;;;11.40;99.90;;;;;;5056409;28;20777;-74
2023/11/13 12:12:47;;;;;;;3.63;2.13;;;11.40;99.90;;;;;;5057909;28;20465;-73
2023/11/13 12:15:14;;;;;;;4.17;2.53;;;11.50;99.90;;;;;;5056276;28;20448;-72
2023/11/13 12:17:41;;;;;;;4.73;2.33;;;11.60;99.90;;;;;;5056590;28;20438;-73
2023/11/13 12:20:09;;;;;;;2.20;1.63;;;11.60;99.90;;;;;;5057350;28;20417;-73
2023/11/13 12:22:39;;;;;;;4.30;2.70;;;11.60;99.90;;;;;;5057128;28;20420;-76
2023/11/13 12:25:10;;;;;;;4.67;2.17;;;11.60;99.90;;;;;;5055956;28;20549;-74
2023/11/13 12:27:38;;;;;;;4.33;2.00;;;11.60;99.90;;;;;;5058121;28;20457;-75
2023/11/13 12:30:20;;;;;;;5.63;2.37;;;11.70;99.90;;;;;;5056776;28;20439;-75
2023/11/13 12:32:46;;;;;;;5.50;2.10;;;11.70;99.90;;;;;;5057495;28;20439;-73
2023/11/13 12:35:13;;;;;;;2.50;2.30;;;11.80;99.90;;;;;;5056565;28;20808;-74
2023/11/13 12:37:42;;;;;;;3.87;2.03;;;11.80;99.90;;;;;;5058291;28;20461;-73
2023/11/13 12:40:10;;;;;;;3.67;2.20;;;11.80;99.90;;;;;;5057254;28;20432;-74
2023/11/13 12:42:40;;;;;;;4.70;2.57;;;11.90;99.90;;;;;;5056464;28;20458;-73
2023/11/13 12:45:10;;;;;;;2.80;1.40;;;11.90;99.90;;;;;;5056312;28;20411;-74
2023/11/13 12:47:36;;;;;;;6.80;2.07;;;12.00;99.90;;;;;;5057975;28;20423;-74
2023/11/13 12:50:02;;;;;;;2.27;1.33;;;12.00;99.90;;;;;;5071840;28;20819;-74
2023/11/13 12:52:29;;;;;;;4.83;1.57;;;12.00;99.90;;;;;;5057694;28;20436;-75
2023/11/13 12:54:55;;;;;;;2.03;1.40;;;12.10;99.90;;;;;;5056246;28;20498;-74
2023/11/13 12:57:26;;;;;;;4.10;2.80;;;12.10;99.90;;;;;;5057243;28;22193;-73